Time;durP1;ratioP1;P1;durP2;ratioP2;P2;SDS_P1;SDS_P2;PMS_P1;PMS_P2;Temp;Humidity;BMP_temperature;BMP_pressure;BME280_temperature;BME280_humidity;BME280_pressure;Samples;Min_cycle;Max_cycle;Signal;HPM_P1;HPM_P2
2021/08/05 00:01:45;;;;;;;9.48;5.40;;;;;;;;;;5039956;28;20343;-65
2021/08/05 00:04:11;;;;;;;12.55;6.78;;;;;;;;;;5048276;28;20466;-66
2021/08/05 00:06:36;;;;;;;8.18;6.50;;;;;;;;;;5042096;28;20028;-66
2021/08/05 00:09:01;;;;;;;7.50;5.97;;;;;;;;;;5029996;28;20022;-65
2021/08/05 00:11:26;;;;;;;8.80;6.45;;;;;;;;;;5033569;28;20424;-65
2021/08/05 00:13:51;;;;;;;15.10;6.57;;;;;;;;;;5032044;28;20048;-66
2021/08/05 00:16:17;;;;;;;9.17;6.50;;;;;;;;;;5049435;28;20711;-65
2021/08/05 00:18:42;;;;;;;11.07;7.17;;;;;;;;;;5037905;28;20358;-66
2021/08/05 00:21:07;;;;;;;12.13;7.37;;;;;;;;;;5037471;28;20252;-65
2021/08/05 00:23:32;;;;;;;13.13;6.57;;;;;;;;;;5047467;28;20283;-66
2021/08/05 00:25:57;;;;;;;11.45;6.75;;;;;;;;;;5049426;28;20287;-65
2021/08/05 00:28:22;;;;;;;9.53;6.57;;;;;;;;;;5041517;28;20057;-66
2021/08/05 00:30:48;;;;;;;9.77;6.77;;;;;;;;;;5041971;28;20267;-65
2021/08/05 00:33:13;;;;;;;9.40;6.50;;;;;;;;;;5045010;28;20802;-66
2021/08/05 00:35:38;;;;;;;10.20;7.53;;;;;;;;;;5048632;28;20286;-65
2021/08/05 00:38:03;;;;;;;10.17;7.73;;;;;;;;;;5050539;28;20060;-65
2021/08/05 00:40:28;;;;;;;12.07;7.77;;;;;;;;;;5044777;28;20268;-66
2021/08/05 00:42:54;;;;;;;15.23;8.33;;;;;;;;;;5035044;28;20338;-66
2021/08/05 00:45:19;;;;;;;10.10;7.70;;;;;;;;;;5037034;28;20343;-65
2021/08/05 00:47:44;;;;;;;10.60;7.20;;;;;;;;;;5051529;28;20041;-65
2021/08/05 00:50:10;;;;;;;10.43;7.35;;;;;;;;;;5043101;28;20033;-66
2021/08/05 00:52:36;;;;;;;9.65;6.63;;;;;;;;;;5049625;28;20607;-65
2021/08/05 00:55:01;;;;;;;12.32;8.02;;;;;;;;;;5045108;28;20035;-65
2021/08/05 00:57:27;;;;;;;10.43;7.53;;;;;;;;;;5053955;28;20017;-66
2021/08/05 00:59:52;;;;;;;10.80;7.80;;;;;;;;;;5043653;28;20664;-65
2021/08/05 01:02:19;;;;;;;16.60;8.37;;;;;;;;;;5034854;28;20030;-66
2021/08/05 01:04:46;;;;;;;11.52;8.70;;;;;;;;;;5049617;28;20271;-65
2021/08/05 01:07:30;;;;;;;13.63;9.05;;;;;;;;;;5050161;28;20259;-65
2021/08/05 01:10:16;;;;;;;13.10;7.72;;;;;;;;;;5051204;28;20025;-65
2021/08/05 01:12:58;;;;;;;12.07;8.13;;;;;;;;;;5038159;28;20437;-65
2021/08/05 01:15:24;;;;;;;11.25;7.65;;;;;;;;;;5038465;28;20028;-66
2021/08/05 01:18:00;;;;;;;20.98;8.20;;;;;;;;;;5036558;28;20083;-65
2021/08/05 01:20:26;;;;;;;12.05;8.65;;;;;;;;;;5033903;28;20105;-65
2021/08/05 01:23:01;;;;;;;9.55;7.60;;;;;;;;;;5034591;28;20032;-65
2021/08/05 01:25:32;;;;;;;12.93;8.93;;;;;;;;;;5051805;28;20033;-66
2021/08/05 01:27:57;;;;;;;;;;;;;;;;;;5052622;28;20108;-66
2021/08/05 01:30:23;;;;;;;10.80;7.72;;;;;;;;;;5040149;28;19997;-66
2021/08/05 01:32:48;;;;;;;11.70;7.50;;;;;;;;;;5034414;28;20025;-65
2021/08/05 01:35:13;;;;;;;11.20;8.18;;;;;;;;;;5050990;28;20417;-65
2021/08/05 01:37:40;;;;;;;11.40;7.97;;;;;;;;;;5045937;28;20044;-66
2021/08/05 01:40:06;;;;;;;14.15;9.15;;;;;;;;;;5048807;28;20029;-66
2021/08/05 01:42:31;;;;;;;16.23;9.32;;;;;;;;;;5050591;28;20071;-67
2021/08/05 01:44:57;;;;;;;15.15;10.30;;;;;;;;;;5036552;28;20104;-66
2021/08/05 01:47:22;;;;;;;15.27;8.80;;;;;;;;;;5045274;28;20477;-65
2021/08/05 01:49:48;;;;;;;15.15;9.50;;;;;;;;;;5038059;28;20052;-66
2021/08/05 01:52:14;;;;;;;16.88;10.35;;;;;;;;;;5035128;28;20493;-67
2021/08/05 01:54:39;;;;;;;14.85;11.10;;;;;;;;;;5038206;28;20116;-65
2021/08/05 01:57:05;;;;;;;15.07;10.27;;;;;;;;;;5044651;28;20055;-65
2021/08/05 01:59:30;;;;;;;19.08;10.93;;;;;;;;;;5034881;28;20017;-65
2021/08/05 02:01:55;;;;;;;14.82;10.40;;;;;;;;;;5033439;28;20037;-65
2021/08/05 02:04:27;;;;;;;18.03;10.13;;;;;;;;;;5034262;28;20013;-65
2021/08/05 02:07:07;;;;;;;13.65;9.90;;;;;;;;;;5036722;28;20594;-66
2021/08/05 02:09:38;;;;;;;15.25;10.25;;;;;;;;;;5037002;28;20044;-66
2021/08/05 02:12:03;;;;;;;14.35;9.70;;;;;;;;;;5037978;28;20074;-66
2021/08/05 02:14:29;;;;;;;18.70;9.48;;;;;;;;;;5038554;28;20409;-65
2021/08/05 02:16:55;;;;;;;18.42;10.05;;;;;;;;;;5038151;28;20033;-66
2021/08/05 02:19:20;;;;;;;14.18;9.80;;;;;;;;;;5034663;28;20382;-65
2021/08/05 02:21:46;;;;;;;14.77;9.60;;;;;;;;;;5035620;28;20020;-66
2021/08/05 02:24:12;;;;;;;18.02;9.88;;;;;;;;;;5038071;28;20398;-66
2021/08/05 02:26:39;;;;;;;17.20;10.45;;;;;;;;;;5036014;28;20474;-66
2021/08/05 02:29:05;;;;;;;13.48;9.32;;;;;;;;;;5036641;28;20041;-66
2021/08/05 02:31:30;;;;;;;14.38;9.77;;;;;;;;;;5043553;28;20033;-65
2021/08/05 02:33:57;;;;;;;12.68;9.35;;;;;;;;;;5040952;28;20040;-65
2021/08/05 02:36:22;;;;;;;16.80;9.23;;;;;;;;;;5044834;28;20181;-65
2021/08/05 02:38:47;;;;;;;15.90;10.30;;;;;;;;;;5051437;28;20021;-66
2021/08/05 02:41:14;;;;;;;16.63;9.60;;;;;;;;;;5038982;28;20264;-65
2021/08/05 02:43:39;;;;;;;13.18;8.63;;;;;;;;;;5037692;28;20030;-65
2021/08/05 02:46:05;;;;;;;14.02;8.60;;;;;;;;;;5045663;28;20048;-65
2021/08/05 02:48:32;;;;;;;22.25;9.73;;;;;;;;;;5045534;28;20037;-66
2021/08/05 02:50:58;;;;;;;13.10;9.98;;;;;;;;;;5041944;28;20025;-65
2021/08/05 02:53:24;;;;;;;13.95;9.70;;;;;;;;;;5044847;28;20127;-66
2021/08/05 02:55:49;;;;;;;13.63;10.20;;;;;;;;;;5047129;28;20548;-65
2021/08/05 02:58:15;;;;;;;16.02;10.02;;;;;;;;;;5044695;28;20112;-66
2021/08/05 03:00:40;;;;;;;12.30;9.32;;;;;;;;;;5046099;28;20041;-65
2021/08/05 03:03:06;;;;;;;13.77;9.52;;;;;;;;;;5047100;28;20021;-65
2021/08/05 03:05:31;;;;;;;14.10;9.77;;;;;;;;;;5035969;28;20131;-67
2021/08/05 03:07:56;;;;;;;15.65;9.68;;;;;;;;;;5050988;28;20021;-66
2021/08/05 03:10:21;;;;;;;15.27;9.73;;;;;;;;;;5046688;28;20029;-66
2021/08/05 03:12:47;;;;;;;15.65;10.75;;;;;;;;;;5045015;28;20264;-65
2021/08/05 03:15:12;;;;;;;16.83;9.98;;;;;;;;;;5044058;28;20490;-66
2021/08/05 03:17:37;;;;;;;14.65;10.15;;;;;;;;;;5037805;28;20017;-65
2021/08/05 03:20:03;;;;;;;18.38;10.65;;;;;;;;;;5042987;28;20477;-65
2021/08/05 03:22:29;;;;;;;14.00;10.45;;;;;;;;;;5049483;28;20075;-67
2021/08/05 03:24:54;;;;;;;12.82;8.43;;;;;;;;;;5034789;28;20025;-65
2021/08/05 03:27:19;;;;;;;10.90;8.10;;;;;;;;;;5034610;28;20025;-67
2021/08/05 03:29:44;;;;;;;19.05;8.98;;;;;;;;;;5050487;28;20343;-65
2021/08/05 03:32:09;;;;;;;14.40;9.45;;;;;;;;;;5043995;28;20103;-66
2021/08/05 03:34:34;;;;;;;14.05;9.45;;;;;;;;;;5037093;28;20418;-65
2021/08/05 03:37:00;;;;;;;13.88;9.80;;;;;;;;;;5045793;28;20037;-66
2021/08/05 03:39:25;;;;;;;14.18;10.02;;;;;;;;;;5040360;28;20029;-66
2021/08/05 03:41:50;;;;;;;20.97;11.10;;;;;;;;;;5039427;28;20501;-66
2021/08/05 03:44:16;;;;;;;13.73;10.10;;;;;;;;;;5043988;28;20266;-65
2021/08/05 03:46:41;;;;;;;14.93;10.85;;;;;;;;;;5042115;28;20032;-65
2021/08/05 03:49:07;;;;;;;21.25;11.05;;;;;;;;;;5045759;28;20025;-66
2021/08/05 03:51:32;;;;;;;17.55;11.45;;;;;;;;;;5044988;28;20431;-66
2021/08/05 03:53:58;;;;;;;26.35;11.38;;;;;;;;;;5042508;28;20445;-66
2021/08/05 03:56:23;;;;;;;19.40;10.70;;;;;;;;;;5034323;28;20026;-66
2021/08/05 03:58:48;;;;;;;20.65;11.23;;;;;;;;;;5038226;28;20378;-65
2021/08/05 04:01:13;;;;;;;19.80;11.37;;;;;;;;;;5041212;28;20373;-65
2021/08/05 04:03:39;;;;;;;18.02;11.93;;;;;;;;;;5043302;28;20251;-65
2021/08/05 04:06:04;;;;;;;21.53;13.37;;;;;;;;;;5043682;28;20080;-65
2021/08/05 04:08:29;;;;;;;22.43;13.53;;;;;;;;;;5042356;28;20256;-65
2021/08/05 04:10:54;;;;;;;19.13;13.07;;;;;;;;;;5029971;28;20263;-65
2021/08/05 04:13:19;;;;;;;21.90;12.77;;;;;;;;;;5037241;28;20465;-65
2021/08/05 04:15:45;;;;;;;21.17;13.70;;;;;;;;;;5033369;28;20025;-65
2021/08/05 04:18:10;;;;;;;22.60;14.50;;;;;;;;;;5042938;28;20052;-65
2021/08/05 04:20:35;;;;;;;24.13;15.18;;;;;;;;;;5050314;28;20293;-65
2021/08/05 04:23:01;;;;;;;24.63;13.98;;;;;;;;;;5038797;28;20253;-66
2021/08/05 04:25:26;;;;;;;19.27;13.93;;;;;;;;;;5036078;28;20017;-65
2021/08/05 04:27:51;;;;;;;20.25;13.90;;;;;;;;;;5035596;28;20057;-65
2021/08/05 04:30:17;;;;;;;19.73;14.07;;;;;;;;;;5039258;28;20057;-66
2021/08/05 04:32:42;;;;;;;23.50;14.02;;;;;;;;;;5039451;28;20402;-66
2021/08/05 04:35:08;;;;;;;19.52;13.18;;;;;;;;;;5050170;28;20025;-65
2021/08/05 04:37:33;;;;;;;25.55;14.27;;;;;;;;;;5041032;28;20729;-65
2021/08/05 04:39:58;;;;;;;23.67;14.73;;;;;;;;;;5047723;28;20029;-65
2021/08/05 04:42:24;;;;;;;22.20;14.03;;;;;;;;;;5034634;28;20406;-66
2021/08/05 04:44:49;;;;;;;18.15;12.18;;;;;;;;;;5033727;28;20256;-65
2021/08/05 04:47:14;;;;;;;18.17;13.27;;;;;;;;;;5036751;28;20031;-66
2021/08/05 04:49:39;;;;;;;24.02;13.15;;;;;;;;;;5030177;28;20617;-66
2021/08/05 04:52:06;;;;;;;22.60;13.23;;;;;;;;;;5033252;28;20503;-65
2021/08/05 04:54:32;;;;;;;25.88;14.63;;;;;;;;;;5035177;28;20607;-65
2021/08/05 04:56:57;;;;;;;21.20;13.35;;;;;;;;;;5038839;28;20031;-66
2021/08/05 04:59:22;;;;;;;19.77;12.93;;;;;;;;;;5047558;28;20499;-65
2021/08/05 05:01:47;;;;;;;19.13;13.60;;;;;;;;;;5041530;28;20303;-65
2021/08/05 05:04:13;;;;;;;21.45;12.85;;;;;;;;;;5030619;28;20256;-66
2021/08/05 05:06:38;;;;;;;17.75;12.50;;;;;;;;;;5031042;28;20126;-65
2021/08/05 05:09:03;;;;;;;21.92;12.90;;;;;;;;;;5039818;28;20673;-66
2021/08/05 05:11:30;;;;;;;24.02;12.15;;;;;;;;;;5045108;28;20039;-66
2021/08/05 05:13:55;;;;;;;19.23;13.23;;;;;;;;;;5047127;28;20040;-65
2021/08/05 05:16:20;;;;;;;20.30;12.53;;;;;;;;;;5044876;28;20026;-67
2021/08/05 05:18:45;;;;;;;21.90;12.47;;;;;;;;;;5038760;28;20630;-65
2021/08/05 05:21:11;;;;;;;21.80;13.07;;;;;;;;;;5036326;28;20458;-66
2021/08/05 05:23:36;;;;;;;19.43;13.37;;;;;;;;;;5049023;28;20604;-65
2021/08/05 05:26:01;;;;;;;17.97;12.40;;;;;;;;;;5038877;28;20272;-65
2021/08/05 05:28:27;;;;;;;20.17;12.32;;;;;;;;;;5049323;28;20260;-65
2021/08/05 05:30:52;;;;;;;17.85;12.85;;;;;;;;;;5038250;28;20017;-65
2021/08/05 05:33:17;;;;;;;18.05;12.35;;;;;;;;;;5050437;28;20472;-66
2021/08/05 05:35:42;;;;;;;20.95;13.10;;;;;;;;;;5050509;28;20013;-65
2021/08/05 05:38:08;;;;;;;17.90;12.47;;;;;;;;;;5041487;28;20035;-66
2021/08/05 05:40:34;;;;;;;25.17;13.20;;;;;;;;;;5044032;28;20352;-66
2021/08/05 05:43:00;;;;;;;17.52;12.77;;;;;;;;;;5041008;28;20025;-65
2021/08/05 05:45:26;;;;;;;18.77;12.82;;;;;;;;;;5047222;28;20049;-65
2021/08/05 05:47:51;;;;;;;21.67;13.80;;;;;;;;;;5043594;28;20052;-65
2021/08/05 05:50:17;;;;;;;17.50;12.95;;;;;;;;;;5049213;28;20017;-67
2021/08/05 05:52:43;;;;;;;21.02;13.43;;;;;;;;;;5037587;28;20509;-67
2021/08/05 05:55:08;;;;;;;20.88;13.13;;;;;;;;;;5039351;28;20108;-65
2021/08/05 05:57:34;;;;;;;18.83;12.95;;;;;;;;;;5046909;28;20021;-65
2021/08/05 06:00:00;;;;;;;16.45;11.85;;;;;;;;;;5043840;28;20032;-67
2021/08/05 06:02:25;;;;;;;17.27;12.63;;;;;;;;;;5042024;28;20051;-65
2021/08/05 06:04:50;;;;;;;19.03;13.13;;;;;;;;;;5038276;28;20048;-67
2021/08/05 06:07:15;;;;;;;21.87;12.67;;;;;;;;;;5040085;28;20259;-66
2021/08/05 06:09:40;;;;;;;19.35;13.15;;;;;;;;;;5048136;28;20287;-67
2021/08/05 06:12:06;;;;;;;20.92;12.00;;;;;;;;;;5045814;28;20025;-65
2021/08/05 06:14:31;;;;;;;24.00;14.73;;;;;;;;;;5040929;28;20021;-66
2021/08/05 06:16:56;;;;;;;20.43;13.60;;;;;;;;;;5048868;28;20393;-65
2021/08/05 06:19:21;;;;;;;21.03;14.03;;;;;;;;;;5043618;28;20326;-66
2021/08/05 06:21:46;;;;;;;23.40;12.93;;;;;;;;;;5041622;28;20264;-65
2021/08/05 06:24:12;;;;;;;21.20;12.27;;;;;;;;;;5046028;28;20782;-66
2021/08/05 06:26:38;;;;;;;19.60;12.15;;;;;;;;;;5045257;28;20017;-65
2021/08/05 06:29:04;;;;;;;16.92;12.00;;;;;;;;;;5049472;28;20469;-65
2021/08/05 06:31:29;;;;;;;18.03;11.27;;;;;;;;;;5048429;28;20051;-65
2021/08/05 06:33:54;;;;;;;17.10;11.35;;;;;;;;;;5043822;28;20569;-65
2021/08/05 06:36:20;;;;;;;18.08;12.18;;;;;;;;;;5040656;28;20021;-66
2021/08/05 06:38:45;;;;;;;19.63;12.00;;;;;;;;;;5049746;28;20405;-66
2021/08/05 06:41:11;;;;;;;18.92;12.00;;;;;;;;;;5038062;28;20033;-65
2021/08/05 06:43:36;;;;;;;23.43;13.17;;;;;;;;;;5031730;28;20033;-65
2021/08/05 06:46:01;;;;;;;18.08;12.40;;;;;;;;;;5031199;28;20292;-66
2021/08/05 06:48:26;;;;;;;17.73;11.50;;;;;;;;;;5047382;28;20036;-66
2021/08/05 06:50:51;;;;;;;16.63;11.87;;;;;;;;;;5042631;28;20167;-65
2021/08/05 06:53:17;;;;;;;20.30;13.13;;;;;;;;;;5042125;28;20256;-65
2021/08/05 06:55:42;;;;;;;18.10;12.02;;;;;;;;;;5042171;28;20628;-66
2021/08/05 06:58:07;;;;;;;18.52;11.95;;;;;;;;;;5045976;28;20029;-65
2021/08/05 07:00:32;;;;;;;19.63;11.60;;;;;;;;;;5024211;28;20031;-66
2021/08/05 07:02:58;;;;;;;21.88;12.50;;;;;;;;;;5041184;28;20672;-66
2021/08/05 07:05:23;;;;;;;20.60;12.47;;;;;;;;;;5035255;28;20022;-65
2021/08/05 07:07:50;;;;;;;20.95;12.45;;;;;;;;;;5041095;28;20287;-66
2021/08/05 07:10:15;;;;;;;24.35;13.43;;;;;;;;;;5049688;28;20452;-65
2021/08/05 07:12:41;;;;;;;16.30;11.63;;;;;;;;;;5049370;28;20104;-67
2021/08/05 07:15:06;;;;;;;26.77;13.30;;;;;;;;;;5039555;28;20539;-65
2021/08/05 07:17:31;;;;;;;22.92;13.43;;;;;;;;;;5043715;28;20275;-65
2021/08/05 07:19:56;;;;;;;17.30;12.67;;;;;;;;;;5053086;28;20052;-65
2021/08/05 07:22:22;;;;;;;19.92;13.18;;;;;;;;;;5044882;28;20263;-66
2021/08/05 07:24:47;;;;;;;17.50;12.90;;;;;;;;;;5041108;28;20066;-67
2021/08/05 07:27:12;;;;;;;18.57;12.20;;;;;;;;;;5037532;28;20668;-67
2021/08/05 07:29:37;;;;;;;20.38;12.80;;;;;;;;;;5049158;28;20282;-65
2021/08/05 07:32:04;;;;;;;18.90;14.02;;;;;;;;;;5049359;28;20032;-66
2021/08/05 07:34:29;;;;;;;18.58;12.07;;;;;;;;;;5045802;28;20029;-66
2021/08/05 07:36:54;;;;;;;17.60;13.00;;;;;;;;;;5026328;28;20028;-66
2021/08/05 07:39:20;;;;;;;19.43;11.63;;;;;;;;;;5030915;28;20036;-66
2021/08/05 07:41:45;;;;;;;15.30;10.95;;;;;;;;;;5036484;28;20259;-66
2021/08/05 07:44:10;;;;;;;18.35;13.25;;;;;;;;;;5044112;28;20389;-65
2021/08/05 07:46:35;;;;;;;15.03;11.60;;;;;;;;;;5032751;28;20116;-65
2021/08/05 07:49:00;;;;;;;16.08;11.95;;;;;;;;;;5033256;28;20268;-65
2021/08/05 07:51:26;;;;;;;17.27;11.20;;;;;;;;;;5044805;28;20029;-68
2021/08/05 07:53:52;;;;;;;16.30;12.57;;;;;;;;;;5013813;28;20709;-68
2021/08/05 07:56:18;;;;;;;16.25;11.15;;;;;;;;;;5034022;28;20053;-66
2021/08/05 07:58:43;;;;;;;16.95;12.70;;;;;;;;;;5039495;28;20030;-66
2021/08/05 08:01:09;;;;;;;20.67;13.03;;;;;;;;;;5041825;28;20023;-66
2021/08/05 08:03:34;;;;;;;17.40;12.50;;;;;;;;;;5045850;28;20271;-67
2021/08/05 08:05:59;;;;;;;17.83;12.55;;;;;;;;;;5032132;28;20486;-66
2021/08/05 08:08:25;;;;;;;19.08;11.48;;;;;;;;;;5048452;28;20013;-66
2021/08/05 08:10:50;;;;;;;16.40;10.45;;;;;;;;;;5034896;28;20351;-66
2021/08/05 08:13:15;;;;;;;17.15;11.60;;;;;;;;;;5040054;28;20017;-66
2021/08/05 08:15:40;;;;;;;16.65;12.15;;;;;;;;;;5049304;28;20026;-66
2021/08/05 08:18:05;;;;;;;18.42;12.80;;;;;;;;;;5036796;28;20018;-66
2021/08/05 08:20:31;;;;;;;21.50;14.25;;;;;;;;;;5013790;28;20025;-67
2021/08/05 08:22:57;;;;;;;17.10;12.25;;;;;;;;;;5041931;28;20025;-66
2021/08/05 08:25:22;;;;;;;19.40;13.10;;;;;;;;;;5042891;28;20056;-67
2021/08/05 08:27:47;;;;;;;18.13;11.80;;;;;;;;;;5034618;28;20021;-66
2021/08/05 08:30:14;;;;;;;18.80;11.52;;;;;;;;;;5038520;28;20267;-67
2021/08/05 08:32:41;;;;;;;16.95;12.15;;;;;;;;;;5050388;28;20048;-67
2021/08/05 08:35:06;;;;;;;20.17;12.55;;;;;;;;;;5036287;28;20060;-66
2021/08/05 08:37:32;;;;;;;16.13;11.90;;;;;;;;;;5034241;28;20064;-66
2021/08/05 08:39:57;;;;;;;19.88;12.32;;;;;;;;;;5033847;28;20504;-66
2021/08/05 08:42:22;;;;;;;20.00;13.25;;;;;;;;;;5037122;28;20028;-66
2021/08/05 08:44:47;;;;;;;15.02;10.35;;;;;;;;;;5045559;28;20021;-66
2021/08/05 08:47:13;;;;;;;19.50;11.70;;;;;;;;;;5043672;28;20363;-66
2021/08/05 08:49:41;;;;;;;20.20;12.05;;;;;;;;;;5036614;28;20302;-67
2021/08/05 08:52:07;;;;;;;19.38;12.48;;;;;;;;;;5041204;28;20035;-66
2021/08/05 08:54:32;;;;;;;16.95;12.35;;;;;;;;;;5042428;28;20033;-66
2021/08/05 08:56:58;;;;;;;22.25;12.73;;;;;;;;;;5043430;28;20025;-66
2021/08/05 08:59:24;;;;;;;22.30;14.02;;;;;;;;;;5050220;28;20044;-66
2021/08/05 09:01:49;;;;;;;16.33;12.57;;;;;;;;;;5041868;28;20052;-67
2021/08/05 09:04:15;;;;;;;19.70;12.52;;;;;;;;;;5046817;28;20032;-66
2021/08/05 09:06:41;;;;;;;16.17;11.80;;;;;;;;;;5048588;28;20017;-65
2021/08/05 09:09:06;;;;;;;18.38;11.77;;;;;;;;;;5048333;28;20108;-66
2021/08/05 09:11:31;;;;;;;21.35;11.80;;;;;;;;;;5045446;28;20032;-66
2021/08/05 09:13:57;;;;;;;18.63;12.57;;;;;;;;;;5034978;28;20111;-67
2021/08/05 09:16:29;;;;;;;21.07;10.50;;;;;;;;;;5039903;28;20060;-65
2021/08/05 09:18:54;;;;;;;15.93;10.65;;;;;;;;;;5049927;28;20298;-65
2021/08/05 09:21:25;;;;;;;13.73;10.15;;;;;;;;;;5038863;28;20386;-66
2021/08/05 09:23:56;;;;;;;14.40;9.82;;;;;;;;;;5044200;28;20142;-66
2021/08/05 09:26:24;;;;;;;16.52;10.07;;;;;;;;;;5049721;28;20541;-66
2021/08/05 09:29:02;;;;;;;13.57;10.25;;;;;;;;;;5049721;28;20033;-66
2021/08/05 09:31:28;;;;;;;14.98;9.25;;;;;;;;;;5043944;28;20025;-67
2021/08/05 09:34:20;;;;;;;15.07;10.10;;;;;;;;;;5038377;28;20040;-67
2021/08/05 09:36:46;;;;;;;14.25;9.50;;;;;;;;;;5030431;28;20049;-66
2021/08/05 09:44:11;;;;;;;13.05;9.05;;;;;;;;;;5099803;28;20191;-65
2021/08/05 09:46:36;;;;;;;11.00;7.45;;;;;;;;;;5106443;28;20024;-65
2021/08/05 09:49:02;;;;;;;10.87;8.53;;;;;;;;;;5100315;28;20044;-65
2021/08/05 09:51:27;;;;;;;13.00;8.77;;;;;;;;;;5075192;28;20020;-65
2021/08/05 09:53:55;;;;;;;18.33;9.63;;;;;;;;;;5078053;28;20357;-65
2021/08/05 09:56:20;;;;;;;14.57;8.43;;;;;;;;;;5075491;28;20025;-66
2021/08/05 09:58:46;;;;;;;12.15;8.20;;;;;;;;;;5072400;28;21455;-66
2021/08/05 10:01:12;;;;;;;13.00;8.30;;;;;;;;;;5074092;28;20111;-66
2021/08/05 10:03:39;;;;;;;13.70;8.03;;;;;;;;;;5074205;28;20411;-66
2021/08/05 10:06:06;;;;;;;12.52;8.77;;;;;;;;;;5080174;28;20326;-66
2021/08/05 10:08:41;;;;;;;10.88;8.20;;;;;;;;;;5082645;28;20012;-66
2021/08/05 10:11:06;;;;;;;9.15;6.97;;;;;;;;;;5071197;28;20031;-66
2021/08/05 10:13:36;;;;;;;11.80;8.10;;;;;;;;;;5071864;28;20024;-66
2021/08/05 10:16:05;;;;;;;20.88;7.82;;;;;;;;;;5078441;28;20100;-66
2021/08/05 10:18:31;;;;;;;10.40;6.40;;;;;;;;;;5072249;28;20028;-66
2021/08/05 10:20:58;;;;;;;11.60;6.03;;;;;;;;;;5086035;28;20372;-66
2021/08/05 10:23:24;;;;;;;7.15;5.60;;;;;;;;;;5091998;28;20441;-66
2021/08/05 10:25:49;;;;;;;5.38;4.65;;;;;;;;;;5080747;28;20017;-66
2021/08/05 10:28:15;;;;;;;8.25;5.15;;;;;;;;;;5089443;28;20020;-67
2021/08/05 10:30:41;;;;;;;11.25;5.60;;;;;;;;;;5078851;28;20024;-67
2021/08/05 10:33:07;;;;;;;9.52;4.25;;;;;;;;;;5072001;28;20507;-67
2021/08/05 10:35:33;;;;;;;12.10;5.45;;;;;;;;;;5072142;28;20082;-66
2021/08/05 10:37:59;;;;;;;8.13;4.35;;;;;;;;;;5080794;28;20904;-66
2021/08/05 10:40:24;;;;;;;6.32;3.67;;;;;;;;;;5069935;28;20021;-66
2021/08/05 10:42:49;;;;;;;4.53;2.80;;;;;;;;;;5069853;28;20044;-66
2021/08/05 10:45:17;;;;;;;5.68;3.20;;;;;;;;;;5069691;28;20490;-66
2021/08/05 10:47:44;;;;;;;4.70;2.58;;;;;;;;;;5070937;28;20017;-66
2021/08/05 10:50:11;;;;;;;3.33;2.20;;;;;;;;;;5071209;28;20560;-66
2021/08/05 10:52:37;;;;;;;5.93;2.17;;;;;;;;;;5071370;28;20115;-65
2021/08/05 10:55:22;;;;;;;6.03;3.00;;;;;;;;;;5071551;28;20052;-66
2021/08/05 10:58:07;;;;;;;7.63;2.75;;;;;;;;;;5053363;28;20036;-66
2021/08/05 11:00:50;;;;;;;5.18;3.13;;;;;;;;;;5070265;28;20016;-65
2021/08/05 11:03:40;;;;;;;5.15;3.15;;;;;;;;;;5071227;28;20017;-66
2021/08/05 11:06:07;;;;;;;6.57;3.17;;;;;;;;;;5071457;28;20048;-66
2021/08/05 11:08:32;;;;;;;4.38;3.05;;;;;;;;;;5070900;28;20023;-67
2021/08/05 11:11:16;;;;;;;5.07;2.97;;;;;;;;;;5070848;28;20024;-66
2021/08/05 11:13:41;;;;;;;7.38;3.40;;;;;;;;;;5070443;28;20316;-66
2021/08/05 11:16:06;;;;;;;7.63;3.50;;;;;;;;;;5070840;28;20029;-66
2021/08/05 11:18:31;;;;;;;9.27;3.97;;;;;;;;;;5071092;28;20108;-66
2021/08/05 11:20:56;;;;;;;8.87;3.43;;;;;;;;;;5070723;28;20247;-66
2021/08/05 11:23:25;;;;;;;5.30;3.50;;;;;;;;;;5071212;28;20070;-67
2021/08/05 11:25:50;;;;;;;5.22;3.60;;;;;;;;;;5070244;28;20267;-67
2021/08/05 11:28:20;;;;;;;13.38;4.65;;;;;;;;;;5070670;28;20104;-67
2021/08/05 11:30:50;;;;;;;6.60;4.60;;;;;;;;;;5070267;28;20036;-66
2021/08/05 11:33:48;;;;;;;6.18;4.13;;;;;;;;;;5070909;28;20086;-66
2021/08/05 11:36:23;;;;;;;5.50;3.47;;;;;;;;;;5010737;28;20374;-66
2021/08/05 11:39:01;;;;;;;6.32;4.40;;;;;;;;;;5050220;28;20020;-66
2021/08/05 11:41:44;;;;;;;6.60;4.05;;;;;;;;;;5050655;28;20048;-67
2021/08/05 11:44:23;;;;;;;7.03;4.00;;;;;;;;;;5055281;28;20038;-66
2021/08/05 11:47:09;;;;;;;6.45;4.13;;;;;;;;;;5070554;28;20016;-66
2021/08/05 11:49:36;;;;;;;7.25;3.40;;;;;;;;;;5069754;28;20029;-66
2021/08/05 11:52:18;;;;;;;4.88;3.47;;;;;;;;;;5070558;28;20016;-66
2021/08/05 11:54:47;;;;;;;8.70;2.97;;;;;;;;;;5069676;28;20024;-67
2021/08/05 11:57:14;;;;;;;5.70;3.30;;;;;;;;;;5070316;28;20028;-66
2021/08/05 11:59:55;;;;;;;4.32;3.10;;;;;;;;;;5069662;28;20024;-67
2021/08/05 12:02:22;;;;;;;5.97;4.18;;;;;;;;;;5070186;28;20024;-66
2021/08/05 12:04:48;;;;;;;8.13;3.60;;;;;;;;;;5069652;28;20020;-66
2021/08/05 12:07:16;;;;;;;5.38;3.50;;;;;;;;;;5070234;28;20431;-66
2021/08/05 12:09:42;;;;;;;6.82;3.38;;;;;;;;;;5069872;28;20021;-66
2021/08/05 12:12:07;;;;;;;4.35;3.55;;;;;;;;;;5070221;28;20494;-66
2021/08/05 12:14:33;;;;;;;4.20;3.15;;;;;;;;;;5069851;28;20550;-66
2021/08/05 12:16:58;;;;;;;5.78;3.05;;;;;;;;;;5070037;28;20031;-66
2021/08/05 12:19:23;;;;;;;4.60;2.95;;;;;;;;;;5067161;28;20086;-66
2021/08/05 12:21:49;;;;;;;10.93;3.45;;;;;;;;;;5063220;28;20016;-67
2021/08/05 12:24:14;;;;;;;3.75;2.70;;;;;;;;;;5069900;28;20017;-66
2021/08/05 12:26:39;;;;;;;5.45;2.88;;;;;;;;;;5070268;28;20051;-67
2021/08/05 12:29:09;;;;;;;7.32;2.83;;;;;;;;;;5051883;28;20028;-66
2021/08/05 12:31:34;;;;;;;4.05;2.33;;;;;;;;;;5070147;28;20070;-66
2021/08/05 12:33:59;;;;;;;3.53;2.83;;;;;;;;;;5072405;28;20028;-66
2021/08/05 12:36:26;;;;;;;3.90;2.97;;;;;;;;;;5074357;28;20247;-67
2021/08/05 12:38:54;;;;;;;2.83;2.35;;;;;;;;;;5073381;28;20482;-66
2021/08/05 12:41:22;;;;;;;3.38;2.22;;;;;;;;;;5073976;28;20046;-67
2021/08/05 12:43:47;;;;;;;2.53;1.77;;;;;;;;;;5073945;28;20447;-67
2021/08/05 12:46:13;;;;;;;4.45;2.78;;;;;;;;;;5073602;28;20081;-66
2021/08/05 12:48:39;;;;;;;9.20;2.45;;;;;;;;;;5073605;28;20102;-67
2021/08/05 12:51:04;;;;;;;6.05;2.50;;;;;;;;;;5073286;28;20017;-67
2021/08/05 12:53:31;;;;;;;2.88;1.85;;;;;;;;;;5073865;28;20021;-66
2021/08/05 12:55:57;;;;;;;4.10;1.80;;;;;;;;;;5073489;28;20030;-66
2021/08/05 12:58:24;;;;;;;3.97;2.55;;;;;;;;;;5073450;28;20012;-66
2021/08/05 13:00:50;;;;;;;5.80;1.65;;;;;;;;;;5073475;28;20035;-67
2021/08/05 13:03:15;;;;;;;2.85;1.90;;;;;;;;;;5072961;28;20020;-66
2021/08/05 13:05:54;;;;;;;3.47;2.60;;;;;;;;;;5073263;28;20023;-66
2021/08/05 13:08:35;;;;;;;3.80;2.05;;;;;;;;;;5072579;28;20020;-66
2021/08/05 13:11:01;;;;;;;4.22;2.53;;;;;;;;;;5073024;28;20024;-66
2021/08/05 13:13:47;;;;;;;3.97;2.50;;;;;;;;;;5073320;28;20428;-66
2021/08/05 13:16:31;;;;;;;3.70;1.85;;;;;;;;;;5073194;28;20048;-67
2021/08/05 13:19:05;;;;;;;2.78;1.80;;;;;;;;;;5072873;28;20021;-66
2021/08/05 13:21:35;;;;;;;3.40;2.22;;;;;;;;;;5073192;28;20032;-66
2021/08/05 13:24:12;;;;;;;3.75;2.33;;;;;;;;;;5072468;28;20468;-66
2021/08/05 13:26:38;;;;;;;2.88;2.08;;;;;;;;;;5073123;28;20028;-67
2021/08/05 13:29:03;;;;;;;5.82;2.00;;;;;;;;;;5072703;28;20365;-67
2021/08/05 13:31:28;;;;;;;5.13;2.10;;;;;;;;;;5072926;28;20032;-66
2021/08/05 13:34:09;;;;;;;3.33;2.10;;;;;;;;;;5072845;28;20308;-66
2021/08/05 13:36:36;;;;;;;5.45;2.58;;;;;;;;;;5072971;28;20020;-66
2021/08/05 13:39:01;;;;;;;4.10;2.20;;;;;;;;;;5072298;28;20048;-67
2021/08/05 13:41:27;;;;;;;4.75;2.47;;;;;;;;;;5073002;28;20037;-66
2021/08/05 13:43:52;;;;;;;5.93;2.80;;;;;;;;;;5072142;28;20032;-66
2021/08/05 13:46:17;;;;;;;2.28;2.05;;;;;;;;;;5072656;28;20009;-66
2021/08/05 13:48:45;;;;;;;5.47;2.47;;;;;;;;;;5072368;28;20013;-66
2021/08/05 13:51:10;;;;;;;2.95;1.80;;;;;;;;;;5072311;28;20013;-66
2021/08/05 13:53:36;;;;;;;4.80;2.07;;;;;;;;;;5072463;28;20028;-66
2021/08/05 13:56:03;;;;;;;4.10;1.92;;;;;;;;;;5072039;28;20281;-66
2021/08/05 13:58:28;;;;;;;6.80;1.90;;;;;;;;;;5072003;28;20096;-66
2021/08/05 14:00:53;;;;;;;3.00;1.92;;;;;;;;;;5072041;28;20126;-66
2021/08/05 14:03:18;;;;;;;4.33;1.83;;;;;;;;;;5071534;28;20093;-66
2021/08/05 14:05:44;;;;;;;2.73;1.73;;;;;;;;;;5071914;28;20344;-66
2021/08/05 14:08:09;;;;;;;3.90;2.40;;;;;;;;;;5071892;28;20714;-67
2021/08/05 14:10:34;;;;;;;1.08;0.98;;;;;;;;;;5071722;28;20038;-66
2021/08/05 14:12:59;;;;;;;2.33;1.30;;;;;;;;;;5071620;28;20024;-66
2021/08/05 14:15:25;;;;;;;4.30;1.52;;;;;;;;;;5071751;28;20029;-66
2021/08/05 14:17:50;;;;;;;2.40;1.50;;;;;;;;;;5053791;28;20174;-66
2021/08/05 14:20:15;;;;;;;4.25;1.48;;;;;;;;;;5053789;28;20353;-66
2021/08/05 14:22:41;;;;;;;1.38;1.00;;;;;;;;;;5071744;28;20074;-67
2021/08/05 14:25:06;;;;;;;2.33;1.48;;;;;;;;;;5071575;28;20064;-66
2021/08/05 14:27:31;;;;;;;3.97;1.95;;;;;;;;;;5071605;28;20012;-67
2021/08/05 14:29:56;;;;;;;2.22;1.40;;;;;;;;;;5071333;28;20075;-67
2021/08/05 14:32:22;;;;;;;4.73;1.60;;;;;;;;;;5071573;28;20017;-67